sensor_id;sensor_type;location;lat;lon;timestamp;P1;durP1;ratioP1;P2;durP2;ratioP2
21802;SDS011;18591;47.080;22.214;2022-10-16T00:00:27;17.83;;;10.77;;
21802;SDS011;18591;47.080;22.214;2022-10-16T00:02:28;20.40;;;12.00;;
21802;SDS011;18591;47.080;22.214;2022-10-16T00:04:31;12.88;;;9.82;;
21802;SDS011;18591;47.080;22.214;2022-10-16T00:06:33;13.88;;;10.30;;
21802;SDS011;18591;47.080;22.214;2022-10-16T00:08:35;16.38;;;10.73;;
21802;SDS011;18591;47.080;22.214;2022-10-16T00:10:38;13.85;;;9.95;;
21802;SDS011;18591;47.080;22.214;2022-10-16T00:12:41;11.85;;;8.65;;
21802;SDS011;18591;47.080;22.214;2022-10-16T00:14:43;11.38;;;9.70;;
21802;SDS011;18591;47.080;22.214;2022-10-16T00:16:45;12.93;;;9.00;;
21802;SDS011;18591;47.080;22.214;2022-10-16T00:18:47;13.70;;;10.10;;
21802;SDS011;18591;47.080;22.214;2022-10-16T00:20:49;15.18;;;8.77;;
21802;SDS011;18591;47.080;22.214;2022-10-16T00:22:52;15.70;;;9.27;;
21802;SDS011;18591;47.080;22.214;2022-10-16T00:24:55;14.05;;;9.43;;
21802;SDS011;18591;47.080;22.214;2022-10-16T00:26:57;14.43;;;10.05;;
21802;SDS011;18591;47.080;22.214;2022-10-16T00:28:59;13.77;;;10.52;;
21802;SDS011;18591;47.080;22.214;2022-10-16T00:31:11;13.23;;;11.25;;
21802;SDS011;18591;47.080;22.214;2022-10-16T00:33:14;15.35;;;10.65;;
21802;SDS011;18591;47.080;22.214;2022-10-16T00:35:16;14.43;;;10.40;;
21802;SDS011;18591;47.080;22.214;2022-10-16T00:37:18;13.38;;;10.00;;
21802;SDS011;18591;47.080;22.214;2022-10-16T00:39:20;15.48;;;10.65;;
21802;SDS011;18591;47.080;22.214;2022-10-16T00:41:24;13.35;;;9.88;;
21802;SDS011;18591;47.080;22.214;2022-10-16T00:43:36;14.30;;;10.35;;
21802;SDS011;18591;47.080;22.214;2022-10-16T00:45:45;12.55;;;9.45;;
21802;SDS011;18591;47.080;22.214;2022-10-16T00:47:47;13.27;;;9.85;;
21802;SDS011;18591;47.080;22.214;2022-10-16T00:49:54;17.10;;;9.73;;
21802;SDS011;18591;47.080;22.214;2022-10-16T00:52:01;14.35;;;10.02;;
21802;SDS011;18591;47.080;22.214;2022-10-16T00:54:11;14.63;;;10.60;;
21802;SDS011;18591;47.080;22.214;2022-10-16T00:56:17;13.95;;;10.02;;
21802;SDS011;18591;47.080;22.214;2022-10-16T00:58:19;15.45;;;10.07;;
21802;SDS011;18591;47.080;22.214;2022-10-16T01:00:23;18.35;;;9.95;;
21802;SDS011;18591;47.080;22.214;2022-10-16T01:02:27;14.85;;;10.73;;
21802;SDS011;18591;47.080;22.214;2022-10-16T01:04:31;14.02;;;10.18;;
21802;SDS011;18591;47.080;22.214;2022-10-16T01:06:46;14.00;;;10.75;;
21802;SDS011;18591;47.080;22.214;2022-10-16T01:08:58;13.52;;;9.30;;
21802;SDS011;18591;47.080;22.214;2022-10-16T01:11:09;13.52;;;10.10;;
21802;SDS011;18591;47.080;22.214;2022-10-16T01:13:24;13.18;;;9.68;;
21802;SDS011;18591;47.080;22.214;2022-10-16T01:15:45;13.00;;;9.57;;
21802;SDS011;18591;47.080;22.214;2022-10-16T01:17:52;9.35;;;7.47;;
21802;SDS011;18591;47.080;22.214;2022-10-16T01:22:19;16.27;;;9.85;;
21802;SDS011;18591;47.080;22.214;2022-10-16T01:24:31;14.57;;;9.85;;
21802;SDS011;18591;47.080;22.214;2022-10-16T01:31:10;14.70;;;10.15;;
21802;SDS011;18591;47.080;22.214;2022-10-16T01:33:27;15.88;;;9.95;;
21802;SDS011;18591;47.080;22.214;2022-10-16T01:35:38;14.73;;;9.02;;
21802;SDS011;18591;47.080;22.214;2022-10-16T01:39:50;16.55;;;9.80;;
21802;SDS011;18591;47.080;22.214;2022-10-16T01:42:13;13.07;;;8.27;;
21802;SDS011;18591;47.080;22.214;2022-10-16T01:44:22;12.07;;;8.80;;
21802;SDS011;18591;47.080;22.214;2022-10-16T01:46:30;11.95;;;7.70;;
21802;SDS011;18591;47.080;22.214;2022-10-16T01:48:33;12.05;;;8.40;;
21802;SDS011;18591;47.080;22.214;2022-10-16T01:50:37;19.10;;;10.25;;
21802;SDS011;18591;47.080;22.214;2022-10-16T01:52:43;16.13;;;10.60;;
21802;SDS011;18591;47.080;22.214;2022-10-16T01:54:49;15.45;;;9.45;;
21802;SDS011;18591;47.080;22.214;2022-10-16T01:56:54;9.98;;;7.70;;
21802;SDS011;18591;47.080;22.214;2022-10-16T01:59:00;13.32;;;8.35;;
21802;SDS011;18591;47.080;22.214;2022-10-16T02:01:07;13.65;;;9.00;;
21802;SDS011;18591;47.080;22.214;2022-10-16T02:03:18;12.82;;;8.48;;
21802;SDS011;18591;47.080;22.214;2022-10-16T02:07:35;11.52;;;8.10;;
21802;SDS011;18591;47.080;22.214;2022-10-16T02:09:38;11.25;;;7.32;;
21802;SDS011;18591;47.080;22.214;2022-10-16T02:11:40;10.63;;;7.28;;
21802;SDS011;18591;47.080;22.214;2022-10-16T02:13:50;12.13;;;7.88;;
21802;SDS011;18591;47.080;22.214;2022-10-16T02:15:57;10.07;;;8.07;;
21802;SDS011;18591;47.080;22.214;2022-10-16T02:17:59;12.32;;;8.45;;
21802;SDS011;18591;47.080;22.214;2022-10-16T02:20:01;11.20;;;8.77;;
21802;SDS011;18591;47.080;22.214;2022-10-16T02:22:05;10.73;;;7.60;;
21802;SDS011;18591;47.080;22.214;2022-10-16T02:26:48;9.57;;;7.88;;
21802;SDS011;18591;47.080;22.214;2022-10-16T02:29:00;9.38;;;8.18;;
21802;SDS011;18591;47.080;22.214;2022-10-16T02:31:08;8.88;;;7.65;;
21802;SDS011;18591;47.080;22.214;2022-10-16T02:33:13;14.68;;;7.60;;
21802;SDS011;18591;47.080;22.214;2022-10-16T02:35:18;8.25;;;6.60;;
21802;SDS011;18591;47.080;22.214;2022-10-16T02:37:23;9.23;;;7.70;;
21802;SDS011;18591;47.080;22.214;2022-10-16T02:39:27;9.55;;;7.18;;
21802;SDS011;18591;47.080;22.214;2022-10-16T02:41:31;9.07;;;7.40;;
21802;SDS011;18591;47.080;22.214;2022-10-16T02:43:34;10.45;;;7.18;;
21802;SDS011;18591;47.080;22.214;2022-10-16T02:45:36;16.27;;;9.68;;
21802;SDS011;18591;47.080;22.214;2022-10-16T02:47:38;14.43;;;8.05;;
21802;SDS011;18591;47.080;22.214;2022-10-16T02:49:43;10.82;;;7.90;;
21802;SDS011;18591;47.080;22.214;2022-10-16T02:51:45;9.88;;;7.32;;
21802;SDS011;18591;47.080;22.214;2022-10-16T02:53:47;11.68;;;8.25;;
21802;SDS011;18591;47.080;22.214;2022-10-16T02:55:49;11.13;;;8.27;;
21802;SDS011;18591;47.080;22.214;2022-10-16T02:57:51;15.10;;;7.95;;
21802;SDS011;18591;47.080;22.214;2022-10-16T02:59:54;9.57;;;6.97;;
21802;SDS011;18591;47.080;22.214;2022-10-16T03:01:56;13.23;;;8.20;;
21802;SDS011;18591;47.080;22.214;2022-10-16T03:03:58;11.32;;;9.00;;
21802;SDS011;18591;47.080;22.214;2022-10-16T03:06:00;10.85;;;7.75;;
21802;SDS011;18591;47.080;22.214;2022-10-16T03:08:02;10.40;;;7.97;;
21802;SDS011;18591;47.080;22.214;2022-10-16T03:10:05;13.52;;;8.13;;
21802;SDS011;18591;47.080;22.214;2022-10-16T03:12:07;10.27;;;7.57;;
21802;SDS011;18591;47.080;22.214;2022-10-16T03:14:09;8.45;;;7.50;;
21802;SDS011;18591;47.080;22.214;2022-10-16T03:16:11;13.93;;;7.72;;
21802;SDS011;18591;47.080;22.214;2022-10-16T03:18:13;10.35;;;6.88;;
21802;SDS011;18591;47.080;22.214;2022-10-16T03:20:15;14.57;;;8.52;;
21802;SDS011;18591;47.080;22.214;2022-10-16T03:22:17;14.60;;;7.78;;
21802;SDS011;18591;47.080;22.214;2022-10-16T03:24:19;12.10;;;7.78;;
21802;SDS011;18591;47.080;22.214;2022-10-16T03:26:21;9.85;;;7.47;;
21802;SDS011;18591;47.080;22.214;2022-10-16T03:28:23;11.15;;;7.88;;
21802;SDS011;18591;47.080;22.214;2022-10-16T03:30:25;9.10;;;7.60;;
21802;SDS011;18591;47.080;22.214;2022-10-16T03:32:27;10.77;;;7.85;;
21802;SDS011;18591;47.080;22.214;2022-10-16T03:34:30;10.60;;;6.72;;
21802;SDS011;18591;47.080;22.214;2022-10-16T03:36:32;9.40;;;8.18;;
21802;SDS011;18591;47.080;22.214;2022-10-16T03:38:35;11.05;;;8.25;;
21802;SDS011;18591;47.080;22.214;2022-10-16T03:40:36;11.98;;;7.78;;
21802;SDS011;18591;47.080;22.214;2022-10-16T03:42:38;12.65;;;8.32;;
21802;SDS011;18591;47.080;22.214;2022-10-16T03:44:41;14.18;;;9.20;;
21802;SDS011;18591;47.080;22.214;2022-10-16T03:46:43;13.90;;;10.25;;
21802;SDS011;18591;47.080;22.214;2022-10-16T03:48:45;15.43;;;9.80;;
21802;SDS011;18591;47.080;22.214;2022-10-16T03:50:47;12.00;;;8.57;;
21802;SDS011;18591;47.080;22.214;2022-10-16T03:52:53;14.00;;;8.88;;
21802;SDS011;18591;47.080;22.214;2022-10-16T03:54:55;13.52;;;8.93;;
21802;SDS011;18591;47.080;22.214;2022-10-16T03:56:57;14.10;;;8.77;;
21802;SDS011;18591;47.080;22.214;2022-10-16T03:58:59;13.57;;;9.07;;
21802;SDS011;18591;47.080;22.214;2022-10-16T04:01:02;9.93;;;8.23;;
21802;SDS011;18591;47.080;22.214;2022-10-16T04:03:07;10.20;;;7.97;;
21802;SDS011;18591;47.080;22.214;2022-10-16T04:05:09;9.55;;;7.63;;
21802;SDS011;18591;47.080;22.214;2022-10-16T04:07:11;10.77;;;8.45;;
21802;SDS011;18591;47.080;22.214;2022-10-16T04:09:13;12.50;;;7.82;;
21802;SDS011;18591;47.080;22.214;2022-10-16T04:11:15;9.68;;;8.00;;
21802;SDS011;18591;47.080;22.214;2022-10-16T04:13:18;10.98;;;7.85;;
21802;SDS011;18591;47.080;22.214;2022-10-16T04:15:25;9.57;;;7.53;;
21802;SDS011;18591;47.080;22.214;2022-10-16T04:17:27;13.95;;;9.05;;
21802;SDS011;18591;47.080;22.214;2022-10-16T04:19:29;13.15;;;8.15;;
21802;SDS011;18591;47.080;22.214;2022-10-16T04:21:31;10.90;;;8.00;;
21802;SDS011;18591;47.080;22.214;2022-10-16T04:23:33;8.65;;;7.35;;
21802;SDS011;18591;47.080;22.214;2022-10-16T04:25:36;9.68;;;6.65;;
21802;SDS011;18591;47.080;22.214;2022-10-16T04:27:38;9.65;;;7.70;;
21802;SDS011;18591;47.080;22.214;2022-10-16T04:29:45;10.73;;;7.60;;
21802;SDS011;18591;47.080;22.214;2022-10-16T04:31:47;12.75;;;7.72;;
21802;SDS011;18591;47.080;22.214;2022-10-16T04:33:49;10.55;;;6.97;;
21802;SDS011;18591;47.080;22.214;2022-10-16T04:35:58;12.55;;;7.43;;
21802;SDS011;18591;47.080;22.214;2022-10-16T04:38:01;10.63;;;7.70;;
21802;SDS011;18591;47.080;22.214;2022-10-16T04:40:03;9.48;;;7.68;;
21802;SDS011;18591;47.080;22.214;2022-10-16T04:42:06;13.00;;;8.95;;
21802;SDS011;18591;47.080;22.214;2022-10-16T04:44:09;24.45;;;15.32;;
21802;SDS011;18591;47.080;22.214;2022-10-16T04:46:11;24.38;;;14.85;;
21802;SDS011;18591;47.080;22.214;2022-10-16T04:48:14;20.10;;;12.90;;
21802;SDS011;18591;47.080;22.214;2022-10-16T04:50:16;24.73;;;13.00;;
21802;SDS011;18591;47.080;22.214;2022-10-16T04:52:35;15.40;;;10.60;;
21802;SDS011;18591;47.080;22.214;2022-10-16T04:54:37;13.65;;;9.98;;
21802;SDS011;18591;47.080;22.214;2022-10-16T04:56:39;12.40;;;9.68;;
21802;SDS011;18591;47.080;22.214;2022-10-16T04:58:48;14.68;;;10.07;;
21802;SDS011;18591;47.080;22.214;2022-10-16T05:00:50;17.30;;;10.00;;
21802;SDS011;18591;47.080;22.214;2022-10-16T05:02:52;15.00;;;10.15;;
21802;SDS011;18591;47.080;22.214;2022-10-16T05:04:54;15.93;;;10.40;;
21802;SDS011;18591;47.080;22.214;2022-10-16T05:06:56;11.75;;;9.25;;
21802;SDS011;18591;47.080;22.214;2022-10-16T05:08:58;17.35;;;10.45;;
21802;SDS011;18591;47.080;22.214;2022-10-16T05:11:00;19.85;;;10.95;;
21802;SDS011;18591;47.080;22.214;2022-10-16T05:13:03;13.02;;;10.25;;
21802;SDS011;18591;47.080;22.214;2022-10-16T05:15:05;13.55;;;9.88;;
21802;SDS011;18591;47.080;22.214;2022-10-16T05:17:08;18.92;;;10.43;;
21802;SDS011;18591;47.080;22.214;2022-10-16T05:19:10;15.98;;;10.27;;
21802;SDS011;18591;47.080;22.214;2022-10-16T05:21:29;15.27;;;10.23;;
21802;SDS011;18591;47.080;22.214;2022-10-16T05:23:32;14.20;;;10.52;;
21802;SDS011;18591;47.080;22.214;2022-10-16T05:25:34;14.00;;;10.30;;
21802;SDS011;18591;47.080;22.214;2022-10-16T05:27:36;15.35;;;9.77;;
21802;SDS011;18591;47.080;22.214;2022-10-16T05:29:38;13.23;;;8.43;;
21802;SDS011;18591;47.080;22.214;2022-10-16T05:31:40;11.23;;;8.45;;
21802;SDS011;18591;47.080;22.214;2022-10-16T05:33:42;13.18;;;8.43;;
21802;SDS011;18591;47.080;22.214;2022-10-16T05:35:45;15.13;;;10.40;;
21802;SDS011;18591;47.080;22.214;2022-10-16T05:37:48;19.08;;;12.75;;
21802;SDS011;18591;47.080;22.214;2022-10-16T05:39:50;21.00;;;14.20;;
21802;SDS011;18591;47.080;22.214;2022-10-16T05:41:52;22.25;;;15.27;;
21802;SDS011;18591;47.080;22.214;2022-10-16T05:43:54;21.73;;;14.82;;
21802;SDS011;18591;47.080;22.214;2022-10-16T05:45:58;19.63;;;13.18;;
21802;SDS011;18591;47.080;22.214;2022-10-16T05:48:01;17.67;;;11.90;;
21802;SDS011;18591;47.080;22.214;2022-10-16T05:50:03;13.55;;;10.90;;
21802;SDS011;18591;47.080;22.214;2022-10-16T05:52:05;14.73;;;11.05;;
21802;SDS011;18591;47.080;22.214;2022-10-16T05:54:08;13.23;;;9.48;;
21802;SDS011;18591;47.080;22.214;2022-10-16T05:56:10;11.10;;;8.32;;
21802;SDS011;18591;47.080;22.214;2022-10-16T05:58:14;11.23;;;7.88;;
21802;SDS011;18591;47.080;22.214;2022-10-16T06:00:16;9.18;;;7.78;;
21802;SDS011;18591;47.080;22.214;2022-10-16T06:02:18;10.35;;;8.10;;
21802;SDS011;18591;47.080;22.214;2022-10-16T06:04:20;12.55;;;7.18;;
21802;SDS011;18591;47.080;22.214;2022-10-16T06:06:23;11.25;;;8.27;;
21802;SDS011;18591;47.080;22.214;2022-10-16T06:08:27;11.55;;;8.93;;
21802;SDS011;18591;47.080;22.214;2022-10-16T06:10:29;12.77;;;8.65;;
21802;SDS011;18591;47.080;22.214;2022-10-16T06:12:31;10.68;;;7.93;;
21802;SDS011;18591;47.080;22.214;2022-10-16T06:14:33;12.63;;;8.23;;
21802;SDS011;18591;47.080;22.214;2022-10-16T06:16:35;12.02;;;7.97;;
21802;SDS011;18591;47.080;22.214;2022-10-16T06:18:38;14.98;;;8.85;;
21802;SDS011;18591;47.080;22.214;2022-10-16T06:20:40;17.00;;;9.55;;
21802;SDS011;18591;47.080;22.214;2022-10-16T06:22:42;18.08;;;10.82;;
21802;SDS011;18591;47.080;22.214;2022-10-16T06:24:45;14.68;;;10.73;;
21802;SDS011;18591;47.080;22.214;2022-10-16T06:26:47;18.33;;;11.52;;
21802;SDS011;18591;47.080;22.214;2022-10-16T06:28:49;13.40;;;10.40;;
21802;SDS011;18591;47.080;22.214;2022-10-16T06:30:58;10.70;;;8.45;;
21802;SDS011;18591;47.080;22.214;2022-10-16T06:33:07;12.90;;;8.43;;
21802;SDS011;18591;47.080;22.214;2022-10-16T06:35:09;11.30;;;7.55;;
21802;SDS011;18591;47.080;22.214;2022-10-16T06:37:11;12.20;;;7.85;;
21802;SDS011;18591;47.080;22.214;2022-10-16T06:39:13;13.80;;;7.97;;
21802;SDS011;18591;47.080;22.214;2022-10-16T06:41:16;11.25;;;7.10;;
21802;SDS011;18591;47.080;22.214;2022-10-16T06:43:19;12.32;;;7.97;;
21802;SDS011;18591;47.080;22.214;2022-10-16T06:45:21;9.88;;;7.65;;
21802;SDS011;18591;47.080;22.214;2022-10-16T06:47:23;13.82;;;7.07;;
21802;SDS011;18591;47.080;22.214;2022-10-16T06:49:25;11.50;;;7.97;;
21802;SDS011;18591;47.080;22.214;2022-10-16T06:51:27;9.95;;;7.57;;
21802;SDS011;18591;47.080;22.214;2022-10-16T06:53:30;11.18;;;7.35;;
21802;SDS011;18591;47.080;22.214;2022-10-16T06:55:44;12.60;;;6.80;;
21802;SDS011;18591;47.080;22.214;2022-10-16T06:57:46;11.70;;;7.40;;
21802;SDS011;18591;47.080;22.214;2022-10-16T06:59:49;9.18;;;7.05;;
21802;SDS011;18591;47.080;22.214;2022-10-16T07:01:55;10.48;;;7.45;;
21802;SDS011;18591;47.080;22.214;2022-10-16T07:03:57;10.90;;;7.60;;
21802;SDS011;18591;47.080;22.214;2022-10-16T07:06:03;8.00;;;6.03;;
21802;SDS011;18591;47.080;22.214;2022-10-16T07:08:06;6.63;;;5.28;;
21802;SDS011;18591;47.080;22.214;2022-10-16T07:10:08;11.40;;;6.28;;
21802;SDS011;18591;47.080;22.214;2022-10-16T07:12:10;6.70;;;5.80;;
21802;SDS011;18591;47.080;22.214;2022-10-16T07:14:14;7.20;;;5.32;;
21802;SDS011;18591;47.080;22.214;2022-10-16T07:16:19;6.35;;;5.25;;
21802;SDS011;18591;47.080;22.214;2022-10-16T07:18:22;5.75;;;4.93;;
21802;SDS011;18591;47.080;22.214;2022-10-16T07:20:28;9.77;;;5.70;;
21802;SDS011;18591;47.080;22.214;2022-10-16T07:22:30;8.38;;;5.80;;
21802;SDS011;18591;47.080;22.214;2022-10-16T07:24:32;9.23;;;5.82;;
21802;SDS011;18591;47.080;22.214;2022-10-16T07:26:35;8.38;;;5.30;;
21802;SDS011;18591;47.080;22.214;2022-10-16T07:28:38;7.38;;;5.63;;
21802;SDS011;18591;47.080;22.214;2022-10-16T07:30:41;8.45;;;6.07;;
21802;SDS011;18591;47.080;22.214;2022-10-16T07:32:43;6.93;;;6.07;;
21802;SDS011;18591;47.080;22.214;2022-10-16T07:34:45;10.55;;;7.22;;
21802;SDS011;18591;47.080;22.214;2022-10-16T07:36:51;8.20;;;6.82;;
21802;SDS011;18591;47.080;22.214;2022-10-16T07:38:53;7.63;;;6.75;;
21802;SDS011;18591;47.080;22.214;2022-10-16T07:41:02;12.38;;;8.15;;
21802;SDS011;18591;47.080;22.214;2022-10-16T07:43:06;12.80;;;7.28;;
21802;SDS011;18591;47.080;22.214;2022-10-16T07:45:08;11.52;;;7.80;;
21802;SDS011;18591;47.080;22.214;2022-10-16T07:47:10;9.63;;;7.90;;
21802;SDS011;18591;47.080;22.214;2022-10-16T07:49:12;10.63;;;7.22;;
21802;SDS011;18591;47.080;22.214;2022-10-16T07:51:17;9.90;;;7.03;;
21802;SDS011;18591;47.080;22.214;2022-10-16T07:53:20;9.05;;;6.60;;
21802;SDS011;18591;47.080;22.214;2022-10-16T07:55:27;8.70;;;7.50;;
21802;SDS011;18591;47.080;22.214;2022-10-16T07:57:29;9.70;;;7.38;;
21802;SDS011;18591;47.080;22.214;2022-10-16T07:59:31;9.95;;;7.80;;
21802;SDS011;18591;47.080;22.214;2022-10-16T08:01:33;10.75;;;7.53;;
21802;SDS011;18591;47.080;22.214;2022-10-16T08:03:36;10.95;;;8.18;;
21802;SDS011;18591;47.080;22.214;2022-10-16T08:05:38;12.88;;;8.38;;
21802;SDS011;18591;47.080;22.214;2022-10-16T08:07:40;9.40;;;8.00;;
21802;SDS011;18591;47.080;22.214;2022-10-16T08:09:42;8.65;;;7.43;;
21802;SDS011;18591;47.080;22.214;2022-10-16T08:11:45;13.30;;;7.75;;
21802;SDS011;18591;47.080;22.214;2022-10-16T08:13:47;8.05;;;7.05;;
21802;SDS011;18591;47.080;22.214;2022-10-16T08:15:49;8.07;;;7.05;;
21802;SDS011;18591;47.080;22.214;2022-10-16T08:17:56;9.77;;;6.85;;
21802;SDS011;18591;47.080;22.214;2022-10-16T08:20:02;9.07;;;7.07;;
21802;SDS011;18591;47.080;22.214;2022-10-16T08:22:04;7.40;;;6.45;;
21802;SDS011;18591;47.080;22.214;2022-10-16T08:24:07;8.75;;;6.32;;
21802;SDS011;18591;47.080;22.214;2022-10-16T08:26:10;12.02;;;6.70;;
21802;SDS011;18591;47.080;22.214;2022-10-16T08:28:13;8.32;;;6.32;;
21802;SDS011;18591;47.080;22.214;2022-10-16T08:30:16;8.23;;;5.88;;
21802;SDS011;18591;47.080;22.214;2022-10-16T08:32:18;7.18;;;6.47;;
21802;SDS011;18591;47.080;22.214;2022-10-16T08:34:27;6.53;;;5.82;;
21802;SDS011;18591;47.080;22.214;2022-10-16T08:36:29;6.00;;;5.38;;
21802;SDS011;18591;47.080;22.214;2022-10-16T08:38:34;6.82;;;5.35;;
21802;SDS011;18591;47.080;22.214;2022-10-16T08:40:36;7.03;;;5.32;;
21802;SDS011;18591;47.080;22.214;2022-10-16T08:49:23;5.93;;;5.03;;
21802;SDS011;18591;47.080;22.214;2022-10-16T08:51:26;6.03;;;4.80;;
21802;SDS011;18591;47.080;22.214;2022-10-16T08:53:38;7.50;;;5.97;;
21802;SDS011;18591;47.080;22.214;2022-10-16T08:55:51;8.40;;;5.43;;
21802;SDS011;18591;47.080;22.214;2022-10-16T08:57:54;10.32;;;5.65;;
21802;SDS011;18591;47.080;22.214;2022-10-16T08:59:57;5.97;;;5.15;;
21802;SDS011;18591;47.080;22.214;2022-10-16T09:02:19;5.38;;;4.82;;
21802;SDS011;18591;47.080;22.214;2022-10-16T09:06:56;5.88;;;5.00;;
21802;SDS011;18591;47.080;22.214;2022-10-16T09:11:26;7.97;;;5.50;;
21802;SDS011;18591;47.080;22.214;2022-10-16T09:13:58;6.22;;;4.85;;
21802;SDS011;18591;47.080;22.214;2022-10-16T09:16:39;7.47;;;4.97;;
21802;SDS011;18591;47.080;22.214;2022-10-16T09:18:51;5.68;;;4.35;;
21802;SDS011;18591;47.080;22.214;2022-10-16T09:25:23;5.53;;;4.43;;
21802;SDS011;18591;47.080;22.214;2022-10-16T09:27:26;6.47;;;3.58;;
21802;SDS011;18591;47.080;22.214;2022-10-16T09:29:34;6.32;;;4.00;;
21802;SDS011;18591;47.080;22.214;2022-10-16T09:31:37;6.47;;;4.45;;
21802;SDS011;18591;47.080;22.214;2022-10-16T09:33:39;4.93;;;4.30;;
21802;SDS011;18591;47.080;22.214;2022-10-16T09:35:51;6.05;;;3.95;;
21802;SDS011;18591;47.080;22.214;2022-10-16T09:37:56;6.03;;;4.90;;
21802;SDS011;18591;47.080;22.214;2022-10-16T09:39:58;5.20;;;4.32;;
21802;SDS011;18591;47.080;22.214;2022-10-16T09:42:09;5.88;;;4.90;;
21802;SDS011;18591;47.080;22.214;2022-10-16T09:44:26;8.75;;;5.43;;
21802;SDS011;18591;47.080;22.214;2022-10-16T09:46:35;9.30;;;5.95;;
21802;SDS011;18591;47.080;22.214;2022-10-16T09:48:43;9.43;;;6.95;;
21802;SDS011;18591;47.080;22.214;2022-10-16T09:50:55;6.45;;;5.40;;
21802;SDS011;18591;47.080;22.214;2022-10-16T09:53:05;5.18;;;4.18;;
21802;SDS011;18591;47.080;22.214;2022-10-16T09:55:16;9.45;;;5.55;;
21802;SDS011;18591;47.080;22.214;2022-10-16T09:57:20;8.52;;;6.13;;
21802;SDS011;18591;47.080;22.214;2022-10-16T09:59:23;8.05;;;5.60;;
21802;SDS011;18591;47.080;22.214;2022-10-16T10:02:11;8.80;;;5.43;;
21802;SDS011;18591;47.080;22.214;2022-10-16T10:03:55;4.80;;;4.13;;
21802;SDS011;18591;47.080;22.214;2022-10-16T10:08:32;4.30;;;3.90;;
21802;SDS011;18591;47.080;22.214;2022-10-16T10:10:38;5.45;;;4.13;;
21802;SDS011;18591;47.080;22.214;2022-10-16T10:12:44;7.93;;;5.10;;
21802;SDS011;18591;47.080;22.214;2022-10-16T10:14:47;5.90;;;5.18;;
21802;SDS011;18591;47.080;22.214;2022-10-16T10:16:53;7.13;;;5.03;;
21802;SDS011;18591;47.080;22.214;2022-10-16T10:19:12;9.07;;;6.45;;
21802;SDS011;18591;47.080;22.214;2022-10-16T10:21:19;17.98;;;10.85;;
21802;SDS011;18591;47.080;22.214;2022-10-16T10:23:25;9.75;;;6.95;;
21802;SDS011;18591;47.080;22.214;2022-10-16T10:26:21;8.63;;;6.30;;
21802;SDS011;18591;47.080;22.214;2022-10-16T10:35:47;19.88;;;12.60;;
21802;SDS011;18591;47.080;22.214;2022-10-16T10:40:33;58.58;;;31.63;;
21802;SDS011;18591;47.080;22.214;2022-10-16T10:42:57;91.65;;;48.83;;
21802;SDS011;18591;47.080;22.214;2022-10-16T10:57:30;5.38;;;4.38;;
21802;SDS011;18591;47.080;22.214;2022-10-16T11:00:03;7.50;;;4.47;;
21802;SDS011;18591;47.080;22.214;2022-10-16T11:02:13;5.30;;;4.15;;
21802;SDS011;18591;47.080;22.214;2022-10-16T11:06:32;4.78;;;3.97;;
21802;SDS011;18591;47.080;22.214;2022-10-16T11:15:45;23.48;;;14.25;;
21802;SDS011;18591;47.080;22.214;2022-10-16T11:18:16;36.20;;;21.83;;
21802;SDS011;18591;47.080;22.214;2022-10-16T11:20:23;25.20;;;16.15;;
21802;SDS011;18591;47.080;22.214;2022-10-16T11:22:38;21.80;;;14.85;;
21802;SDS011;18591;47.080;22.214;2022-10-16T11:24:52;11.88;;;9.02;;
21802;SDS011;18591;47.080;22.214;2022-10-16T11:27:17;10.10;;;6.72;;
21802;SDS011;18591;47.080;22.214;2022-10-16T11:29:24;11.77;;;8.43;;
21802;SDS011;18591;47.080;22.214;2022-10-16T11:31:32;27.63;;;19.67;;
21802;SDS011;18591;47.080;22.214;2022-10-16T11:33:55;22.98;;;17.67;;
21802;SDS011;18591;47.080;22.214;2022-10-16T11:36:16;12.13;;;9.68;;
21802;SDS011;18591;47.080;22.214;2022-10-16T11:38:34;10.32;;;7.55;;
21802;SDS011;18591;47.080;22.214;2022-10-16T11:40:51;7.28;;;5.72;;
21802;SDS011;18591;47.080;22.214;2022-10-16T11:43:04;6.70;;;5.93;;
21802;SDS011;18591;47.080;22.214;2022-10-16T11:45:36;5.95;;;4.97;;
21802;SDS011;18591;47.080;22.214;2022-10-16T11:47:44;4.97;;;4.47;;
21802;SDS011;18591;47.080;22.214;2022-10-16T11:50:13;5.28;;;4.55;;
21802;SDS011;18591;47.080;22.214;2022-10-16T11:56:48;7.30;;;5.20;;
21802;SDS011;18591;47.080;22.214;2022-10-16T12:06:39;8.27;;;4.30;;
21802;SDS011;18591;47.080;22.214;2022-10-16T12:08:45;5.97;;;4.30;;
21802;SDS011;18591;47.080;22.214;2022-10-16T12:10:48;4.22;;;3.83;;
21802;SDS011;18591;47.080;22.214;2022-10-16T12:12:50;4.43;;;4.03;;
21802;SDS011;18591;47.080;22.214;2022-10-16T12:15:00;5.55;;;4.45;;
21802;SDS011;18591;47.080;22.214;2022-10-16T12:17:24;7.05;;;5.63;;
21802;SDS011;18591;47.080;22.214;2022-10-16T12:19:36;5.88;;;4.47;;
21802;SDS011;18591;47.080;22.214;2022-10-16T12:21:39;5.72;;;5.13;;
21802;SDS011;18591;47.080;22.214;2022-10-16T12:25:54;7.85;;;5.55;;
21802;SDS011;18591;47.080;22.214;2022-10-16T12:30:06;6.40;;;5.38;;
21802;SDS011;18591;47.080;22.214;2022-10-16T12:34:49;18.67;;;14.00;;
21802;SDS011;18591;47.080;22.214;2022-10-16T12:36:51;9.43;;;7.28;;
21802;SDS011;18591;47.080;22.214;2022-10-16T12:38:55;10.48;;;6.35;;
21802;SDS011;18591;47.080;22.214;2022-10-16T12:41:05;7.30;;;5.00;;
21802;SDS011;18591;47.080;22.214;2022-10-16T12:45:27;8.65;;;6.82;;
21802;SDS011;18591;47.080;22.214;2022-10-16T12:49:36;6.95;;;6.07;;
21802;SDS011;18591;47.080;22.214;2022-10-16T12:51:41;7.55;;;6.18;;
21802;SDS011;18591;47.080;22.214;2022-10-16T12:53:44;7.60;;;6.07;;
21802;SDS011;18591;47.080;22.214;2022-10-16T12:58:02;7.15;;;6.38;;
21802;SDS011;18591;47.080;22.214;2022-10-16T13:00:32;7.75;;;6.80;;
21802;SDS011;18591;47.080;22.214;2022-10-16T13:02:49;16.17;;;13.00;;
21802;SDS011;18591;47.080;22.214;2022-10-16T13:22:21;16.63;;;12.32;;
21802;SDS011;18591;47.080;22.214;2022-10-16T13:29:05;7.20;;;6.50;;
21802;SDS011;18591;47.080;22.214;2022-10-16T13:31:13;10.88;;;8.70;;
21802;SDS011;18591;47.080;22.214;2022-10-16T13:35:34;11.32;;;7.50;;
21802;SDS011;18591;47.080;22.214;2022-10-16T13:37:38;8.15;;;7.05;;
21802;SDS011;18591;47.080;22.214;2022-10-16T13:39:40;9.52;;;7.70;;
21802;SDS011;18591;47.080;22.214;2022-10-16T13:41:42;13.15;;;6.82;;
21802;SDS011;18591;47.080;22.214;2022-10-16T13:45:58;9.40;;;6.53;;
21802;SDS011;18591;47.080;22.214;2022-10-16T13:48:18;6.32;;;5.35;;
21802;SDS011;18591;47.080;22.214;2022-10-16T13:50:20;6.70;;;5.80;;
21802;SDS011;18591;47.080;22.214;2022-10-16T13:52:22;7.03;;;5.72;;
21802;SDS011;18591;47.080;22.214;2022-10-16T13:54:25;5.45;;;4.90;;
21802;SDS011;18591;47.080;22.214;2022-10-16T13:56:31;5.95;;;5.25;;
21802;SDS011;18591;47.080;22.214;2022-10-16T13:58:34;5.47;;;4.72;;
21802;SDS011;18591;47.080;22.214;2022-10-16T14:00:37;5.22;;;4.72;;
21802;SDS011;18591;47.080;22.214;2022-10-16T14:02:42;5.72;;;4.68;;
21802;SDS011;18591;47.080;22.214;2022-10-16T14:04:44;6.18;;;4.82;;
21802;SDS011;18591;47.080;22.214;2022-10-16T14:06:49;6.80;;;5.70;;
21802;SDS011;18591;47.080;22.214;2022-10-16T14:11:30;5.68;;;5.10;;
21802;SDS011;18591;47.080;22.214;2022-10-16T14:13:43;5.35;;;4.85;;
21802;SDS011;18591;47.080;22.214;2022-10-16T14:15:47;6.13;;;5.28;;